Time;durP1;ratioP1;P1;durP2;ratioP2;P2;SDS_P1;SDS_P2;PMS_P1;PMS_P2;Temp;Humidity;BMP_temperature;BMP_pressure;BME280_temperature;BME280_humidity;BME280_pressure;Samples;Min_cycle;Max_cycle;Signal;HPM_P1;HPM_P2
2023/07/24 00:01:31;;;;;;;3.63;3.25;;;20.50;72.60;;;;;;4975549;28;20407;-60
2023/07/24 00:03:56;;;;;;;4.53;3.72;;;20.50;72.70;;;;;;4975631;28;20042;-60
2023/07/24 00:06:22;;;;;;;4.07;3.67;;;20.50;72.70;;;;;;4976079;28;20027;-59
2023/07/24 00:08:48;;;;;;;3.55;3.20;;;20.40;72.60;;;;;;4975568;28;20094;-59
2023/07/24 00:11:13;;;;;;;3.85;3.45;;;20.40;72.60;;;;;;4975442;28;20031;-59
2023/07/24 00:13:39;;;;;;;4.28;3.30;;;20.40;72.60;;;;;;4975761;28;20456;-59
2023/07/24 00:16:08;;;;;;;3.50;3.20;;;20.40;72.70;;;;;;4975959;28;20053;-59
2023/07/24 00:18:34;;;;;;;3.80;3.45;;;20.40;72.90;;;;;;4975295;28;20038;-60
2023/07/24 00:21:00;;;;;;;3.53;3.17;;;20.40;72.80;;;;;;4975489;28;20454;-59
2023/07/24 00:23:25;;;;;;;3.67;3.33;;;20.30;72.80;;;;;;4975255;28;20509;-59
2023/07/24 00:25:51;;;;;;;4.68;3.50;;;20.30;72.80;;;;;;4975395;28;20113;-60
2023/07/24 00:28:17;;;;;;;5.28;3.72;;;20.30;72.90;;;;;;4975383;28;20054;-59
2023/07/24 00:30:42;;;;;;;4.20;3.75;;;20.30;72.80;;;;;;4975182;28;20034;-60
2023/07/24 00:33:08;;;;;;;3.42;3.13;;;20.30;72.90;;;;;;4975172;28;20027;-59
2023/07/24 00:35:34;;;;;;;4.05;3.53;;;20.30;72.90;;;;;;4975137;28;20105;-59
2023/07/24 00:37:59;;;;;;;4.05;3.65;;;20.20;72.90;;;;;;4974978;28;20023;-59
2023/07/24 00:40:25;;;;;;;4.80;3.60;;;20.20;72.90;;;;;;4974862;28;20515;-59
2023/07/24 00:42:51;;;;;;;3.90;3.50;;;20.20;73.00;;;;;;4974977;28;20105;-60
2023/07/24 00:45:16;;;;;;;3.92;3.22;;;20.20;73.10;;;;;;4974692;28;20115;-59
2023/07/24 00:47:43;;;;;;;4.13;3.47;;;20.20;73.10;;;;;;4974785;28;20030;-60
2023/07/24 00:50:10;;;;;;;4.05;3.35;;;20.10;73.10;;;;;;4974670;28;20042;-60
2023/07/24 00:52:37;;;;;;;3.60;3.25;;;20.20;73.30;;;;;;4974025;28;20031;-60
2023/07/24 00:55:03;;;;;;;4.28;3.88;;;20.20;73.20;;;;;;4974752;28;20026;-60
2023/07/24 00:57:28;;;;;;;4.05;3.70;;;20.20;73.20;;;;;;4974377;28;20054;-59
2023/07/24 00:59:54;;;;;;;3.40;3.10;;;20.10;73.20;;;;;;4974685;28;20035;-59
2023/07/24 01:02:20;;;;;;;4.13;3.65;;;20.10;73.80;;;;;;4974456;28;20030;-59
2023/07/24 01:04:46;;;;;;;4.35;3.80;;;20.10;73.20;;;;;;4974775;28;20035;-59
2023/07/24 01:07:12;;;;;;;3.80;3.40;;;20.10;73.20;;;;;;4974460;28;20023;-59
2023/07/24 01:09:38;;;;;;;4.65;3.80;;;20.00;73.90;;;;;;4974442;28;20395;-60
2023/07/24 01:12:13;;;;;;;3.40;3.10;;;20.00;73.30;;;;;;4974600;28;20027;-60
2023/07/24 01:14:52;;;;;;;4.15;3.75;;;20.10;73.40;;;;;;4974294;28;20038;-59
2023/07/24 01:17:24;;;;;;;4.30;3.78;;;20.00;73.40;;;;;;4974424;28;20062;-60
2023/07/24 01:19:54;;;;;;;4.40;3.80;;;20.00;73.40;;;;;;4974474;28;20072;-59
2023/07/24 01:22:55;;;;;;;5.00;4.30;;;20.00;73.50;;;;;;4974406;28;20035;-59
2023/07/24 01:25:31;;;;;;;4.75;3.83;;;20.00;73.60;;;;;;4974787;28;20034;-59
2023/07/24 01:27:57;;;;;;;5.55;4.00;;;19.90;73.80;;;;;;4974102;28;20027;-60
2023/07/24 01:30:23;;;;;;;4.72;4.03;;;19.90;74.10;;;;;;4973996;28;20026;-59
2023/07/24 01:32:49;;;;;;;5.20;4.43;;;19.90;74.10;;;;;;4973943;28;20034;-60
2023/07/24 01:35:15;;;;;;;4.88;4.10;;;19.90;74.10;;;;;;4974205;28;20033;-59
2023/07/24 01:37:42;;;;;;;5.28;4.50;;;19.80;74.00;;;;;;4974107;28;20888;-59
2023/07/24 01:40:10;;;;;;;5.25;4.68;;;19.80;74.20;;;;;;4974090;28;20066;-59
2023/07/24 01:42:36;;;;;;;4.97;4.45;;;19.80;74.40;;;;;;4973989;28;20368;-59
2023/07/24 01:45:03;;;;;;;5.05;4.35;;;19.80;74.40;;;;;;4973854;28;20074;-59
2023/07/24 01:47:32;;;;;;;4.75;4.28;;;19.80;74.30;;;;;;4970405;28;20027;-59
2023/07/24 01:49:58;;;;;;;4.70;4.30;;;19.70;74.30;;;;;;4954457;29;20030;-60
2023/07/24 01:52:23;;;;;;;5.18;4.47;;;19.70;74.50;;;;;;4954450;29;20467;-59
2023/07/24 01:54:50;;;;;;;5.25;4.53;;;19.70;74.50;;;;;;4954198;29;20032;-58
2023/07/24 01:57:15;;;;;;;5.40;3.88;;;19.70;74.60;;;;;;4954304;29;20503;-59
2023/07/24 01:59:41;;;;;;;4.82;4.32;;;19.70;74.50;;;;;;4954165;29;20042;-59
2023/07/24 02:02:07;;;;;;;4.47;4.07;;;19.60;74.50;;;;;;4954091;29;20531;-59
2023/07/24 02:04:32;;;;;;;4.85;4.35;;;19.70;74.60;;;;;;4953305;28;20031;-59
2023/07/24 02:06:58;;;;;;;5.10;4.60;;;19.60;74.60;;;;;;4954264;29;20466;-59
2023/07/24 02:09:23;;;;;;;5.43;4.55;;;19.60;74.70;;;;;;4954151;29;20034;-59
2023/07/24 02:11:49;;;;;;;4.72;4.10;;;19.60;74.90;;;;;;4953924;29;20089;-59
2023/07/24 02:14:17;;;;;;;4.45;4.05;;;19.60;75.00;;;;;;4953842;29;20503;-60
2023/07/24 02:16:43;;;;;;;5.15;4.45;;;19.50;75.00;;;;;;4953920;29;20467;-59
2023/07/24 02:19:08;;;;;;;5.18;4.30;;;19.50;75.10;;;;;;4953911;29;20046;-59
2023/07/24 02:21:34;;;;;;;5.13;4.15;;;19.50;75.10;;;;;;4953679;29;20042;-59
2023/07/24 02:24:00;;;;;;;5.05;4.32;;;19.50;75.30;;;;;;4954089;29;20053;-59
2023/07/24 02:26:25;;;;;;;4.63;4.05;;;19.50;75.30;;;;;;4954019;29;20032;-59
2023/07/24 02:28:52;;;;;;;4.78;4.28;;;19.50;75.40;;;;;;4936434;29;20491;-59
2023/07/24 02:31:17;;;;;;;4.63;4.20;;;19.50;75.40;;;;;;4953676;29;20027;-59
2023/07/24 02:33:43;;;;;;;5.68;4.47;;;19.50;75.60;;;;;;4953612;29;20053;-59
2023/07/24 02:36:08;;;;;;;4.50;4.10;;;19.50;75.60;;;;;;4953677;29;20031;-59
2023/07/24 02:38:34;;;;;;;5.10;4.60;;;19.50;75.70;;;;;;4953755;29;20428;-59
2023/07/24 02:41:01;;;;;;;4.50;4.10;;;19.50;75.80;;;;;;4953653;29;20543;-60
2023/07/24 02:43:26;;;;;;;5.18;4.50;;;19.50;75.90;;;;;;4953480;29;20024;-59
2023/07/24 02:45:52;;;;;;;4.70;3.88;;;19.50;75.90;;;;;;4953504;29;20035;-59
2023/07/24 02:48:17;;;;;;;4.93;4.22;;;19.50;76.10;;;;;;4953388;29;20031;-59
2023/07/24 02:50:43;;;;;;;4.15;3.75;;;19.60;76.70;;;;;;4953688;29;20383;-59
2023/07/24 02:53:09;;;;;;;5.43;4.30;;;19.50;75.90;;;;;;4953263;29;20129;-59
2023/07/24 02:55:34;;;;;;;5.60;4.18;;;19.50;75.80;;;;;;4953565;29;20032;-60
2023/07/24 02:58:00;;;;;;;5.32;4.47;;;19.60;75.60;;;;;;4953164;29;20059;-59
2023/07/24 03:00:25;;;;;;;5.07;4.10;;;19.60;75.30;;;;;;4953121;29;20039;-59
2023/07/24 03:02:52;;;;;;;5.00;4.43;;;19.60;75.20;;;;;;4953184;29;20035;-60
2023/07/24 03:05:18;;;;;;;5.28;4.78;;;19.60;75.10;;;;;;4953180;29;20547;-59
2023/07/24 03:07:44;;;;;;;5.00;4.43;;;19.70;75.00;;;;;;4953227;29;20023;-59
2023/07/24 03:10:09;;;;;;;4.95;4.45;;;19.70;74.80;;;;;;4953732;29;20020;-59
2023/07/24 03:12:35;;;;;;;4.93;4.43;;;19.70;74.70;;;;;;4953210;29;20097;-59
2023/07/24 03:15:01;;;;;;;5.00;4.50;;;19.80;74.70;;;;;;4953820;28;20534;-60
2023/07/24 03:17:27;;;;;;;4.65;4.05;;;19.80;74.60;;;;;;4957201;29;20038;-59
2023/07/24 03:19:55;;;;;;;5.50;4.57;;;19.80;74.50;;;;;;4956991;29;20408;-60
2023/07/24 03:22:20;;;;;;;4.90;4.40;;;19.90;74.30;;;;;;4956904;29;20023;-59
2023/07/24 03:24:46;;;;;;;5.22;4.72;;;19.90;74.20;;;;;;4957171;29;20082;-59
2023/07/24 03:27:12;;;;;;;5.93;4.90;;;20.00;74.10;;;;;;4956874;29;20015;-60
2023/07/24 03:29:39;;;;;;;6.10;4.63;;;20.10;74.10;;;;;;4956856;29;20110;-60
2023/07/24 03:32:05;;;;;;;5.40;4.50;;;20.10;74.20;;;;;;4957064;29;20035;-60
2023/07/24 03:34:30;;;;;;;5.78;4.75;;;20.20;74.40;;;;;;4956688;29;20034;-60
2023/07/24 03:36:56;;;;;;;6.25;5.28;;;20.30;74.40;;;;;;4956791;29;20034;-60
2023/07/24 03:39:21;;;;;;;10.35;5.20;;;20.30;74.60;;;;;;4955129;29;20074;-60
2023/07/24 03:41:47;;;;;;;5.63;4.93;;;20.50;75.30;;;;;;4956218;28;20030;-60
2023/07/24 03:44:13;;;;;;;5.45;4.95;;;20.70;75.50;;;;;;4974601;28;20105;-61
2023/07/24 03:46:38;;;;;;;5.50;5.00;;;20.90;75.90;;;;;;4973885;28;20052;-60
2023/07/24 03:49:04;;;;;;;5.30;4.78;;;21.20;75.80;;;;;;4974202;28;20038;-61
2023/07/24 03:51:30;;;;;;;5.68;5.00;;;21.50;75.50;;;;;;4974370;28;20394;-61
2023/07/24 03:53:55;;;;;;;6.22;4.50;;;21.90;74.90;;;;;;4957794;28;20035;-61
2023/07/24 03:56:21;;;;;;;5.65;4.60;;;22.40;74.40;;;;;;4975671;28;20038;-61
2023/07/24 03:58:46;;;;;;;4.55;4.00;;;22.90;73.60;;;;;;4975529;28;20058;-62
2023/07/24 04:01:12;;;;;;;4.93;4.03;;;23.60;72.60;;;;;;4975505;28;20042;-61
2023/07/24 04:03:38;;;;;;;5.57;4.35;;;24.50;71.30;;;;;;4976207;28;20019;-62
2023/07/24 04:06:03;;;;;;;4.93;3.92;;;25.40;69.50;;;;;;4975739;28;20015;-61
2023/07/24 04:08:29;;;;;;;4.05;3.65;;;26.40;67.90;;;;;;4975605;28;20035;-62
2023/07/24 04:10:57;;;;;;;4.75;3.38;;;27.30;66.30;;;;;;4975428;28;20498;-61
2023/07/24 04:13:23;;;;;;;4.68;3.40;;;28.30;64.40;;;;;;4975385;28;20509;-59
2023/07/24 04:15:49;;;;;;;3.40;3.03;;;29.20;62.90;;;;;;4975480;28;20031;-59
2023/07/24 04:18:14;;;;;;;3.70;3.15;;;30.10;61.50;;;;;;4975834;28;20022;-59
2023/07/24 04:20:40;;;;;;;3.35;2.95;;;30.90;59.90;;;;;;4974644;28;20035;-59
2023/07/24 04:23:08;;;;;;;4.57;3.15;;;31.70;58.70;;;;;;4974150;28;20063;-59
2023/07/24 04:25:34;;;;;;;3.67;2.90;;;32.40;57.30;;;;;;4975178;28;20027;-59
2023/07/24 04:27:59;;;;;;;2.90;2.70;;;33.00;56.30;;;;;;4974354;28;20031;-59
2023/07/24 04:30:25;;;;;;;2.90;2.60;;;33.60;55.20;;;;;;4975075;28;20042;-59
2023/07/24 04:32:51;;;;;;;3.35;2.80;;;34.10;54.40;;;;;;4975144;28;20467;-60
2023/07/24 04:35:16;;;;;;;2.63;2.40;;;34.50;53.60;;;;;;4974479;28;20375;-60
2023/07/24 04:37:42;;;;;;;2.63;2.42;;;35.00;53.10;;;;;;4974950;28;20027;-60
2023/07/24 04:40:08;;;;;;;4.25;3.20;;;35.40;52.80;;;;;;4974605;28;20390;-60
2023/07/24 04:42:34;;;;;;;3.00;2.70;;;35.80;51.60;;;;;;4975052;28;20038;-60
2023/07/24 04:44:59;;;;;;;3.42;2.70;;;36.00;50.80;;;;;;4974938;28;20078;-60
2023/07/24 04:47:25;;;;;;;2.88;2.67;;;36.10;50.20;;;;;;4974863;28;20483;-60
2023/07/24 04:49:50;;;;;;;2.97;2.35;;;36.00;50.10;;;;;;4974762;28;20026;-60
2023/07/24 04:52:16;;;;;;;3.63;2.75;;;36.00;49.90;;;;;;4974914;28;20039;-60
2023/07/24 04:54:42;;;;;;;2.90;2.60;;;36.10;49.50;;;;;;4974733;28;20336;-60
2023/07/24 04:57:07;;;;;;;2.63;2.38;;;36.30;49.50;;;;;;4974324;28;20050;-60
2023/07/24 04:59:33;;;;;;;2.80;2.50;;;36.50;49.30;;;;;;4972586;28;20038;-61
2023/07/24 05:01:59;;;;;;;3.30;2.90;;;36.80;49.10;;;;;;4973093;28;20125;-60
2023/07/24 05:04:24;;;;;;;3.47;2.50;;;37.20;48.70;;;;;;4973430;28;20361;-60
2023/07/24 05:06:50;;;;;;;3.05;2.53;;;37.50;48.20;;;;;;4973846;28;20033;-60
2023/07/24 05:09:17;;;;;;;2.72;2.30;;;37.70;48.00;;;;;;4974415;28;20073;-60
2023/07/24 05:11:44;;;;;;;3.90;2.70;;;37.70;47.60;;;;;;4973800;28;20027;-60
2023/07/24 05:14:10;;;;;;;2.83;2.53;;;37.80;47.10;;;;;;4974547;28;20034;-60
2023/07/24 05:16:36;;;;;;;3.70;2.90;;;37.50;46.70;;;;;;4974229;28;20026;-60
2023/07/24 05:19:01;;;;;;;2.65;2.38;;;37.20;47.00;;;;;;4972857;28;20434;-60
2023/07/24 05:21:27;;;;;;;2.97;2.58;;;37.10;46.90;;;;;;4972988;28;20146;-61
2023/07/24 05:23:53;;;;;;;3.20;2.60;;;37.10;46.70;;;;;;4973817;28;20029;-60
2023/07/24 05:26:18;;;;;;;3.22;2.50;;;37.00;46.70;;;;;;4973760;28;20042;-60
2023/07/24 05:28:44;;;;;;;3.05;2.78;;;37.00;46.60;;;;;;4974301;28;20026;-60
2023/07/24 05:31:10;;;;;;;2.40;2.20;;;37.00;46.00;;;;;;4974069;28;20483;-60
2023/07/24 05:33:35;;;;;;;2.58;2.38;;;36.90;45.50;;;;;;4974253;28;20390;-60
2023/07/24 05:36:02;;;;;;;3.50;2.70;;;36.60;45.40;;;;;;4954859;28;20042;-59
2023/07/24 05:38:28;;;;;;;3.25;2.63;;;36.00;45.60;;;;;;4972128;28;20558;-60
2023/07/24 05:40:58;;;;;;;4.85;3.30;;;35.40;45.90;;;;;;4971703;28;20027;-60
2023/07/24 05:43:23;;;;;;;3.57;3.07;;;34.70;46.30;;;;;;4973376;28;20082;-60
2023/07/24 05:45:51;;;;;;;3.22;2.92;;;34.00;46.70;;;;;;4973087;28;20035;-59
2023/07/24 05:48:17;;;;;;;3.55;2.97;;;33.40;47.30;;;;;;4973261;28;20081;-59
2023/07/24 05:50:43;;;;;;;3.33;2.63;;;32.80;47.80;;;;;;4972669;28;20035;-59
2023/07/24 05:53:08;;;;;;;3.45;2.95;;;32.20;48.30;;;;;;4971216;28;20023;-59
2023/07/24 05:55:34;;;;;;;4.25;3.10;;;31.70;48.80;;;;;;4970633;28;20487;-59
2023/07/24 05:57:59;;;;;;;4.63;3.20;;;31.30;49.30;;;;;;4971486;28;20042;-59
2023/07/24 06:00:25;;;;;;;3.72;3.20;;;30.90;49.90;;;;;;4972993;28;20027;-60
2023/07/24 06:02:51;;;;;;;3.83;3.05;;;30.60;50.30;;;;;;4972475;28;20255;-59
2023/07/24 06:05:16;;;;;;;3.63;3.05;;;30.30;50.40;;;;;;4973041;28;20033;-59
2023/07/24 06:07:42;;;;;;;4.07;3.05;;;30.00;50.70;;;;;;4972392;28;20483;-59
2023/07/24 06:10:08;;;;;;;3.42;3.05;;;29.70;51.00;;;;;;4971872;28;20023;-59
2023/07/24 06:12:34;;;;;;;3.85;3.28;;;29.50;51.30;;;;;;4972605;28;20041;-60
2023/07/24 06:14:59;;;;;;;5.38;3.15;;;29.30;51.90;;;;;;4972999;28;20155;-59
2023/07/24 06:17:25;;;;;;;3.53;3.20;;;29.10;52.20;;;;;;4972840;28;20147;-59
2023/07/24 06:19:50;;;;;;;3.35;2.80;;;29.00;52.20;;;;;;4972842;28;20049;-59
2023/07/24 06:22:16;;;;;;;3.38;3.08;;;28.90;52.40;;;;;;4972738;28;20085;-59
2023/07/24 06:24:42;;;;;;;3.30;3.00;;;28.70;52.50;;;;;;4973191;28;20023;-60
2023/07/24 06:27:07;;;;;;;3.40;3.10;;;28.60;52.60;;;;;;4973071;28;20015;-60
2023/07/24 06:29:33;;;;;;;3.30;3.00;;;28.50;53.10;;;;;;4973238;28;20031;-61
2023/07/24 06:31:59;;;;;;;3.90;3.33;;;28.40;53.40;;;;;;4973022;28;20034;-60
2023/07/24 06:34:24;;;;;;;4.25;3.08;;;28.30;53.80;;;;;;4972950;28;20027;-61
2023/07/24 06:36:50;;;;;;;3.30;3.00;;;28.20;54.10;;;;;;4972727;28;20030;-60
2023/07/24 06:39:16;;;;;;;4.60;3.08;;;28.10;54.00;;;;;;4972813;28;20039;-60
2023/07/24 06:41:41;;;;;;;3.13;2.83;;;28.10;54.10;;;;;;4971412;28;20106;-60
2023/07/24 06:44:07;;;;;;;3.88;3.40;;;28.00;54.40;;;;;;4968073;28;20073;-60
2023/07/24 06:46:33;;;;;;;3.17;2.88;;;27.90;54.40;;;;;;4970509;28;20511;-60
2023/07/24 06:48:58;;;;;;;3.50;3.20;;;27.90;54.50;;;;;;4957501;28;20041;-61
2023/07/24 06:51:24;;;;;;;4.18;3.40;;;27.80;54.60;;;;;;4966374;28;20038;-60
2023/07/24 06:53:50;;;;;;;3.85;3.38;;;27.80;54.70;;;;;;4970728;28;20042;-60
2023/07/24 06:56:15;;;;;;;3.42;3.08;;;27.70;54.60;;;;;;4972055;28;20109;-60
2023/07/24 06:58:41;;;;;;;3.30;3.00;;;27.70;54.40;;;;;;4963975;28;20051;-60
2023/07/24 07:01:07;;;;;;;3.55;3.03;;;27.70;54.60;;;;;;4959574;28;20031;-61
2023/07/24 07:03:36;;;;;;;4.32;2.78;;;27.60;54.50;;;;;;4933833;28;20099;-59
2023/07/24 07:06:02;;;;;;;3.22;2.92;;;27.60;54.50;;;;;;4963488;28;20077;-58
2023/07/24 07:08:31;;;;;;;3.00;2.70;;;27.60;54.30;;;;;;4966282;28;20039;-58
2023/07/24 07:11:00;;;;;;;3.15;2.80;;;27.50;54.40;;;;;;4942469;28;20042;-59
2023/07/24 07:13:27;;;;;;;3.33;3.03;;;27.50;54.40;;;;;;4970187;28;20110;-59
2023/07/24 07:15:53;;;;;;;3.05;2.67;;;27.40;54.40;;;;;;4970089;28;20039;-60
2023/07/24 07:18:18;;;;;;;4.18;3.17;;;27.40;54.50;;;;;;4964088;28;20628;-58
2023/07/24 07:20:52;;;;;;;3.03;2.75;;;27.40;54.70;;;;;;4969328;28;20057;-59
2023/07/24 07:23:18;;;;;;;4.38;3.13;;;27.40;54.70;;;;;;4968269;28;20027;-59
2023/07/24 07:25:45;;;;;;;2.92;2.67;;;27.30;54.60;;;;;;4962720;28;20039;-59
2023/07/24 07:28:12;;;;;;;2.80;2.60;;;27.30;54.70;;;;;;4969484;28;20031;-59
2023/07/24 07:30:37;;;;;;;2.60;2.40;;;27.30;54.50;;;;;;4963342;28;20376;-59
2023/07/24 07:33:05;;;;;;;3.60;3.03;;;27.30;54.40;;;;;;4970355;28;20026;-59
2023/07/24 07:35:34;;;;;;;2.78;2.58;;;27.30;54.60;;;;;;4953206;28;20050;-59
2023/07/24 07:38:00;;;;;;;3.55;2.80;;;27.30;54.70;;;;;;4958579;28;20102;-59
2023/07/24 07:40:26;;;;;;;3.17;2.85;;;27.30;54.80;;;;;;4965407;28;20483;-59
2023/07/24 07:42:53;;;;;;;3.53;3.00;;;27.20;54.70;;;;;;4967689;28;20133;-60
2023/07/24 07:45:19;;;;;;;3.10;2.80;;;27.20;54.80;;;;;;4969160;28;20027;-60
2023/07/24 07:47:44;;;;;;;3.17;2.88;;;27.20;55.10;;;;;;4965423;28;20027;-58
2023/07/24 07:50:10;;;;;;;2.80;2.50;;;27.20;55.00;;;;;;4961603;28;20026;-60
2023/07/24 07:52:36;;;;;;;2.83;2.53;;;27.20;54.90;;;;;;4962924;28;20041;-59
2023/07/24 07:55:02;;;;;;;3.83;3.00;;;27.20;54.90;;;;;;4963953;28;20050;-59
2023/07/24 07:57:28;;;;;;;3.15;2.70;;;27.10;54.50;;;;;;4968310;28;20046;-60
2023/07/24 07:59:53;;;;;;;5.78;3.22;;;27.10;54.30;;;;;;4965227;28;20085;-59
2023/07/24 08:02:19;;;;;;;3.10;2.80;;;27.00;54.20;;;;;;4958813;28;20131;-60
2023/07/24 08:04:45;;;;;;;2.80;2.55;;;27.00;54.20;;;;;;4970320;28;20052;-60
2023/07/24 08:07:10;;;;;;;3.30;2.90;;;27.00;54.40;;;;;;4967685;28;20035;-60
2023/07/24 08:09:38;;;;;;;2.90;2.60;;;27.00;54.40;;;;;;4935367;28;20051;-59
2023/07/24 08:12:04;;;;;;;3.67;2.70;;;27.00;54.60;;;;;;4967162;28;20145;-60
2023/07/24 08:14:30;;;;;;;2.83;2.42;;;27.00;54.70;;;;;;4966651;28;20434;-60
2023/07/24 08:16:56;;;;;;;2.63;2.42;;;27.00;54.70;;;;;;4969914;28;20042;-60
2023/07/24 08:19:21;;;;;;;3.17;2.63;;;27.00;54.70;;;;;;4970746;28;20031;-60
2023/07/24 08:21:47;;;;;;;3.42;2.90;;;27.00;54.60;;;;;;4954417;28;20038;-58
2023/07/24 08:24:13;;;;;;;3.33;2.70;;;27.00;54.50;;;;;;4971284;28;20035;-59
2023/07/24 08:26:38;;;;;;;3.08;2.60;;;27.00;54.50;;;;;;4973259;28;20031;-60
2023/07/24 08:29:05;;;;;;;2.92;2.63;;;26.90;54.40;;;;;;4970351;28;20031;-59
2023/07/24 08:31:30;;;;;;;3.53;2.70;;;26.90;54.40;;;;;;4972580;28;20637;-60
2023/07/24 08:33:56;;;;;;;3.33;3.03;;;26.90;54.50;;;;;;4971331;28;20039;-60
2023/07/24 08:36:21;;;;;;;2.80;2.50;;;26.80;54.50;;;;;;4968531;28;20431;-60
2023/07/24 08:38:47;;;;;;;3.50;2.72;;;26.80;54.30;;;;;;4972794;28;20038;-57
2023/07/24 08:41:14;;;;;;;3.60;2.80;;;26.80;54.20;;;;;;4975218;28;20036;-57
2023/07/24 08:43:42;;;;;;;2.88;2.60;;;26.70;54.20;;;;;;4975769;28;20115;-60
2023/07/24 08:46:09;;;;;;;3.10;2.80;;;26.70;54.10;;;;;;4969617;28;20027;-60
2023/07/24 08:48:44;;;;;;;2.60;2.40;;;26.70;54.20;;;;;;4972998;28;20018;-60
2023/07/24 08:51:12;;;;;;;3.00;2.70;;;26.70;54.10;;;;;;4967784;28;20125;-60
2023/07/24 08:53:40;;;;;;;3.10;2.70;;;26.60;54.20;;;;;;4971626;28;20077;-60
2023/07/24 08:56:10;;;;;;;3.30;2.80;;;26.60;54.40;;;;;;4972468;28;20062;-59
2023/07/24 08:58:36;;;;;;;3.45;3.13;;;26.60;54.60;;;;;;4972268;28;20054;-60
2023/07/24 09:01:03;;;;;;;2.85;2.55;;;26.50;54.40;;;;;;4964789;28;20042;-60
2023/07/24 09:03:31;;;;;;;2.90;2.60;;;26.50;54.70;;;;;;4967052;28;20101;-60
2023/07/24 09:05:57;;;;;;;3.03;2.72;;;26.50;55.00;;;;;;4965625;28;20026;-60
2023/07/24 09:08:53;;;;;;;2.67;2.45;;;26.40;55.00;;;;;;4970281;28;20372;-60
2023/07/24 09:11:18;;;;;;;3.28;2.97;;;26.40;55.20;;;;;;4970525;28;20035;-60
2023/07/24 09:13:44;;;;;;;3.22;2.92;;;26.30;55.10;;;;;;4969971;28;20034;-60
2023/07/24 09:16:22;;;;;;;3.38;2.85;;;26.30;55.20;;;;;;4964685;28;20027;-59
2023/07/24 09:18:47;;;;;;;2.80;2.60;;;26.20;55.30;;;;;;4966975;28;20030;-59
2023/07/24 09:21:13;;;;;;;3.10;2.80;;;26.10;55.50;;;;;;4968906;28;20356;-59
2023/07/24 09:23:43;;;;;;;4.03;2.75;;;26.10;55.50;;;;;;4971849;28;20069;-59
2023/07/24 09:26:09;;;;;;;2.97;2.65;;;26.10;55.70;;;;;;4965618;28;20486;-59
2023/07/24 09:28:35;;;;;;;2.90;2.70;;;26.00;56.00;;;;;;4971114;28;20045;-59
2023/07/24 09:31:01;;;;;;;2.95;2.65;;;26.00;56.00;;;;;;4973342;28;20168;-60
2023/07/24 09:33:41;;;;;;;3.97;2.95;;;25.90;56.00;;;;;;4971031;28;20126;-60
2023/07/24 09:36:08;;;;;;;3.75;2.65;;;25.80;56.00;;;;;;4967086;28;20037;-59
2023/07/24 09:38:35;;;;;;;3.08;2.67;;;25.80;56.10;;;;;;4968358;28;20026;-58
2023/07/24 09:41:05;;;;;;;3.20;2.90;;;25.80;56.40;;;;;;4965005;28;20760;-59
2023/07/24 09:43:31;;;;;;;2.80;2.60;;;25.80;56.50;;;;;;4970477;28;20046;-59
2023/07/24 09:45:58;;;;;;;3.63;3.17;;;25.70;56.50;;;;;;4965807;28;20389;-59
2023/07/24 09:48:25;;;;;;;3.83;3.20;;;25.70;56.70;;;;;;4965286;28;20546;-59
2023/07/24 09:50:59;;;;;;;3.40;2.90;;;25.60;56.60;;;;;;4964237;28;20049;-59
2023/07/24 09:54:00;;;;;;;3.17;2.80;;;25.60;56.50;;;;;;4967405;28;20027;-59
2023/07/24 09:56:27;;;;;;;3.50;2.80;;;25.60;56.40;;;;;;4945890;28;20038;-59
2023/07/24 09:58:55;;;;;;;3.00;2.70;;;25.50;56.50;;;;;;4968938;28;20031;-59
2023/07/24 10:01:21;;;;;;;3.70;2.90;;;25.50;56.40;;;;;;4972415;28;20483;-59
2023/07/24 10:03:49;;;;;;;3.92;3.00;;;25.50;57.40;;;;;;4949144;28;20070;-59
2023/07/24 10:06:16;;;;;;;3.63;3.10;;;25.40;56.40;;;;;;4964636;28;20041;-59
2023/07/24 10:08:43;;;;;;;3.22;2.92;;;25.40;56.60;;;;;;4964069;28;20127;-58
2023/07/24 10:11:11;;;;;;;3.60;3.10;;;25.40;57.50;;;;;;4971127;28;20046;-59
2023/07/24 10:13:38;;;;;;;4.13;3.15;;;25.40;56.80;;;;;;4970919;28;20133;-59
2023/07/24 10:16:06;;;;;;;4.78;3.20;;;25.40;56.90;;;;;;4969958;28;20038;-58
2023/07/24 10:18:33;;;;;;;3.55;3.25;;;25.40;57.10;;;;;;4966380;28;20039;-58
2023/07/24 10:21:07;;;;;;;4.00;3.30;;;25.30;57.00;;;;;;4965823;28;20042;-58
2023/07/24 10:23:40;;;;;;;3.17;2.83;;;25.30;57.00;;;;;;4970408;28;20208;-58
2023/07/24 10:26:06;;;;;;;3.17;2.88;;;25.30;57.10;;;;;;4959491;28;20031;-58
2023/07/24 10:28:38;;;;;;;3.30;3.00;;;25.30;57.40;;;;;;4967461;28;20434;-58
2023/07/24 10:31:10;;;;;;;3.20;2.90;;;25.30;57.50;;;;;;4967413;28;20039;-58
2023/07/24 10:33:43;;;;;;;4.97;3.00;;;25.20;57.60;;;;;;4964801;28;20399;-58
2023/07/24 10:36:13;;;;;;;4.80;3.05;;;25.20;57.60;;;;;;4964194;28;20497;-58
2023/07/24 10:38:40;;;;;;;4.35;3.42;;;25.20;57.80;;;;;;4962363;28;20126;-58
2023/07/24 10:41:08;;;;;;;3.42;3.13;;;25.20;57.60;;;;;;4958856;28;20040;-58
2023/07/24 10:43:44;;;;;;;4.07;3.60;;;25.20;57.90;;;;;;4968131;28;20029;-59
2023/07/24 10:46:11;;;;;;;3.70;3.30;;;25.20;57.90;;;;;;4968876;28;20041;-58
2023/07/24 10:48:37;;;;;;;4.20;3.33;;;25.20;58.20;;;;;;4970161;28;20035;-59
2023/07/24 10:51:08;;;;;;;5.28;3.80;;;25.20;58.20;;;;;;4968358;28;20387;-58
2023/07/24 10:53:36;;;;;;;4.82;3.40;;;25.20;58.20;;;;;;4970211;28;20041;-58
2023/07/24 10:56:02;;;;;;;4.18;3.40;;;25.20;58.10;;;;;;4970463;28;20392;-58
2023/07/24 10:58:29;;;;;;;4.75;3.42;;;25.20;58.20;;;;;;4965125;28;20142;-58
2023/07/24 11:00:56;;;;;;;5.82;3.35;;;25.20;58.60;;;;;;4967888;28;20293;-59
2023/07/24 11:03:22;;;;;;;4.85;3.80;;;25.20;58.40;;;;;;4967796;28;20023;-59
2023/07/24 11:05:48;;;;;;;3.45;3.15;;;25.20;58.60;;;;;;4966236;28;20114;-58
2023/07/24 11:08:16;;;;;;;4.28;3.20;;;25.20;58.60;;;;;;4966271;28;20027;-58
2023/07/24 11:10:48;;;;;;;4.85;3.40;;;25.20;59.10;;;;;;4941270;28;20046;-58
2023/07/24 11:13:18;;;;;;;4.70;3.50;;;25.20;58.60;;;;;;4947685;28;20054;-58
2023/07/24 11:15:44;;;;;;;3.70;3.20;;;25.20;58.80;;;;;;4965375;28;20129;-59
2023/07/24 11:18:11;;;;;;;3.53;2.95;;;25.20;59.00;;;;;;4966715;28;20492;-56
2023/07/24 11:20:54;;;;;;;4.10;3.60;;;25.20;59.00;;;;;;4958328;28;20038;-57
2023/07/24 11:23:20;;;;;;;4.35;3.40;;;25.20;59.20;;;;;;4967155;28;20053;-58
2023/07/24 11:25:46;;;;;;;3.10;2.80;;;25.20;59.10;;;;;;4968527;28;20110;-59
2023/07/24 11:28:14;;;;;;;3.42;3.13;;;25.20;59.00;;;;;;4963088;28;20027;-59
2023/07/24 11:30:41;;;;;;;4.65;3.20;;;25.20;59.00;;;;;;4964318;28;20027;-59
2023/07/24 11:33:09;;;;;;;4.35;3.20;;;25.20;59.10;;;;;;4965697;28;20467;-60
2023/07/24 11:35:38;;;;;;;3.67;3.03;;;25.20;59.20;;;;;;4969824;28;20086;-58
2023/07/24 11:38:04;;;;;;;3.20;2.88;;;25.20;59.40;;;;;;4975564;28;20058;-59
2023/07/24 11:40:44;;;;;;;4.15;3.15;;;25.20;59.50;;;;;;4976208;28;20495;-57
2023/07/24 11:43:21;;;;;;;5.03;3.08;;;25.20;59.70;;;;;;4972882;28;20035;-59
2023/07/24 11:45:55;;;;;;;3.85;3.45;;;25.20;60.00;;;;;;4968969;28;20102;-59
2023/07/24 11:48:23;;;;;;;3.50;3.20;;;25.20;60.20;;;;;;4973933;28;20074;-58
2023/07/24 11:50:51;;;;;;;4.40;3.22;;;25.20;60.40;;;;;;4968484;28;20039;-60
2023/07/24 11:53:30;;;;;;;4.50;3.10;;;25.20;60.60;;;;;;4971305;28;20138;-59
2023/07/24 11:55:57;;;;;;;3.65;3.00;;;25.20;60.60;;;;;;4969837;28;20035;-59
2023/07/24 11:58:26;;;;;;;3.95;3.20;;;25.20;60.70;;;;;;4972035;28;20046;-59
2023/07/24 12:00:52;;;;;;;4.10;3.20;;;25.20;60.90;;;;;;4968922;28;20110;-58
2023/07/24 12:03:21;;;;;;;4.22;3.08;;;25.20;60.80;;;;;;4966049;28;20058;-60
2023/07/24 12:05:47;;;;;;;3.80;3.10;;;25.20;60.80;;;;;;4968604;28;20026;-59
2023/07/24 12:08:14;;;;;;;3.58;3.22;;;25.20;61.00;;;;;;4965776;28;20027;-58
2023/07/24 12:10:40;;;;;;;4.88;3.40;;;25.20;60.90;;;;;;4972648;28;20678;-58
2023/07/24 12:13:06;;;;;;;3.88;3.20;;;25.30;61.00;;;;;;4973746;28;20039;-59
2023/07/24 12:15:34;;;;;;;6.13;3.45;;;25.30;61.20;;;;;;4976090;28;20501;-58
2023/07/24 12:18:00;;;;;;;4.15;3.08;;;25.20;61.10;;;;;;4972315;28;20376;-58
2023/07/24 12:20:27;;;;;;;3.95;3.50;;;25.30;61.20;;;;;;4971491;28;20124;-58
2023/07/24 12:22:53;;;;;;;3.72;3.08;;;25.30;61.30;;;;;;4973300;28;20391;-59
2023/07/24 12:25:19;;;;;;;3.53;3.10;;;25.30;61.30;;;;;;4968983;28;20024;-58
2023/07/24 12:27:46;;;;;;;5.18;3.30;;;25.30;61.30;;;;;;4969645;28;20121;-58
2023/07/24 12:30:12;;;;;;;3.85;3.05;;;25.30;61.40;;;;;;4964103;28;20557;-59
2023/07/24 12:32:38;;;;;;;5.40;3.85;;;25.30;61.40;;;;;;4974337;28;20582;-58
2023/07/24 12:35:04;;;;;;;4.00;3.15;;;25.30;61.50;;;;;;4973147;28;20117;-58
2023/07/24 12:37:30;;;;;;;4.43;3.70;;;25.30;61.70;;;;;;4973213;28;20069;-59
2023/07/24 12:39:56;;;;;;;4.15;3.55;;;25.30;61.70;;;;;;4973993;28;20476;-58
2023/07/24 12:42:21;;;;;;;4.78;3.65;;;25.30;61.70;;;;;;4974116;28;20035;-57
2023/07/24 12:44:47;;;;;;;4.00;3.30;;;25.30;61.90;;;;;;4974914;28;20027;-58
2023/07/24 12:47:12;;;;;;;4.68;3.58;;;25.30;61.90;;;;;;4973988;28;20031;-58